Flight Track Log - Related Links

Times and Time Zones

All times are in EDT time to prevent confusion due to time zone crossing. See the N620ZJ flight status page for this flight to view local times or setup timezone preferences in your user account.

Time Position Orientation Groundspeed Altitude Reporting Facility
EDT Latitude Longitude Course Direction KTS MPH feet Rate Location/Type
Fri 11:47:17 AM 34.2572 -98.8536 307° West 141 162 6,500  Level Fort Worth Center
Fri 11:47:53 AM 34.2736 -98.8803 307° West 142 163 6,500  Level Fort Worth Center
Fri 11:48:19 AM 34.2814 -98.8942 304° West 141 162 6,500  Level Fort Worth Center
Fri 11:48:54 AM 34.2947 -98.9172 305° West 141 162 6,500  Level Fort Worth Center
Fri 11:49:21 AM 34.3050 -98.9347 305° West 141 162 6,500  Level Fort Worth Center
Fri 11:49:55 AM 34.3183 -98.9564 307° West 139 160 6,500  Level Fort Worth Center
Fri 11:50:24 AM 34.3283 -98.9747 303° West 140 161 6,500  Level Fort Worth Center
Fri 11:50:55 AM 34.3397 -98.9933 307° West 140 161 6,500  Level Fort Worth Center
Fri 11:51:26 AM 34.3522 -99.0139 306° West 140 161 6,500  Level Fort Worth Center
Fri 11:51:56 AM 34.3633 -99.0325 306° West 140 161 6,500  Level Fort Worth Center
Fri 11:52:28 AM 34.3736 -99.0514 303° West 140 161 6,500  Level Fort Worth Center
Fri 11:52:50 AM 34.3842 -99.0669 309° West 140 161 6,500  Level Fort Worth Center
Fri 11:53:30 AM 34.3986 -99.0908 306° West 140 161 6,500  Level Fort Worth Center
Fri 11:53:51 AM 34.4078 -99.1061 306° West 140 161 6,500  Level Fort Worth Center
Fri 11:54:32 AM 34.4214 -99.1311 303° West 140 161 6,500  Level Fort Worth Center
Fri 11:54:52 AM 34.4292 -99.1431 308° West 140 161 6,500  Level Fort Worth Center
Fri 11:55:34 AM 34.4442 -99.1725 302° West 140 161 6,500  Level Fort Worth Center
Fri 11:55:52 AM 34.4508 -99.1853 302° West 140 161 6,500  Level Fort Worth Center
Fri 11:56:36 AM 34.4678 -99.2133 306° West 141 162 6,500  Level Fort Worth Center
Fri 11:56:53 AM 34.4758 -99.2192 329° Northwest 148 170 6,500  Level Fort Worth Center
Fri 11:57:38 AM 34.5000 -99.2489 315° West 147 169 6,500  Level Fort Worth Center
Fri 11:57:53 AM 34.5039 -99.2603 293° West 147 169 6,500  Level Fort Worth Center
Fri 11:58:41 AM 34.5161 -99.2897 297° West 141 162 6,500  Level Fort Worth Center
Fri 11:58:54 AM 34.5211 -99.3006 299° West 137 158 6,500  Level Fort Worth Center
Fri 11:59:43 AM 34.5403 -99.3311 307° West 141 162 6,500  Level Fort Worth Center
Fri 11:59:55 AM 34.5467 -99.3394 313° West 146 168 6,500  Level Fort Worth Center
Fri 12:00:45 PM 34.5661 -99.3717 306° West 145 167 6,500  Level Fort Worth Center
Fri 12:00:55 PM 34.5683 -99.3792 290° West 140 161 6,500  Level Fort Worth Center
Fri 12:01:47 PM 34.5808 -99.4153 293° West 134 154 6,500  Level Fort Worth Center
Fri 12:02:56 PM 34.6225 -99.4489 326° Northwest 153 176 6,500  Level Fort Worth Center
Fri 12:03:57 PM 34.6442 -99.4911 302° West 140 161 6,500 49 Level Fort Worth Center
Fri 12:04:58 PM 34.6653 -99.5286 304° West 141 162 6,600 50 Climbing Fort Worth Center
Fri 12:05:58 PM 34.6931 -99.5672 311° West 146 168 6,600  Level Fort Worth Center
Fri 12:06:59 PM 34.7039 -99.6089 288° West 131 151 6,600  Level Fort Worth Center
Fri 12:07:59 PM 34.7350 -99.6419 319° Northwest 159 183 6,600  Level Fort Worth Center
Fri 12:09:00 PM 34.7658 -99.6725 321° Northwest 141 162 6,600 -59 Level Fort Worth Center
Fri 12:09:40 PM 34.7758 -99.6928 301° West 106 122 6,500  Descending Fort Worth Center
Fri 12:10:01 PM 34.7869 -99.7100 308° West 139 160 6,600  Climbing Fort Worth Center
Fri 12:10:42 PM 34.8125 -99.7150 351° North 145 167 6,500  Descending Fort Worth Center
Fri 12:11:01 PM 34.8322 -99.7178 353° North 164 189 6,600  Climbing Fort Worth Center
Fri 12:11:44 PM 34.8586 -99.7117 11° North 159 183 6,500  Descending Fort Worth Center
Fri 12:12:02 PM 34.8767 -99.7028 22° Northeast 173 199 6,600  Climbing Fort Worth Center
Fri 12:12:46 PM 34.9114 -99.6861 21° North 165 190 6,500  Descending Fort Worth Center
Fri 12:13:02 PM 34.9206 -99.6800 29° Northeast 167 192 6,600  Climbing Fort Worth Center
Fri 12:13:48 PM 34.9553 -99.6697 14° North 165 190 6,500  Descending Fort Worth Center
Fri 12:14:03 PM 34.9661 -99.6725 348° North 167 192 6,600  Climbing Fort Worth Center
Fri 12:14:50 PM 34.9867 -99.6972 315° West 169 194 6,500  Descending Fort Worth Center
Fri 12:15:04 PM 34.9847 -99.7078 257° West 122 140 6,600 95 Climbing Fort Worth Center
Fri 12:15:53 PM 35.0042 -99.7303 317° Northwest 135 155 6,600 100 Level Fort Worth Center
Fri 12:16:04 PM 35.0114 -99.7394 314° West 143 165 6,700 194 Climbing Fort Worth Center
Fri 12:16:55 PM 35.0403 -99.7567 334° Northwest 144 166 6,800 98 Climbing Fort Worth Center
Fri 12:17:05 PM 35.0478 -99.7639 322° Northwest 146 168 6,800  Level Fort Worth Center
Fri 12:17:57 PM 35.0761 -99.7806 334° Northwest 145 167 6,800 105 Level Fort Worth Center
Fri 12:18:59 PM 35.1097 -99.8197 316° Northwest 144 166 7,000 145 Climbing Fort Worth Center
Fri 12:20:01 PM 35.1333 -99.8533 311° West 136 157 7,100 145 Climbing Fort Worth Center
Fri 12:21:03 PM 35.1539 -99.8883 306° West 131 151 7,300 194 Climbing Fort Worth Center
Fri 12:22:05 PM 35.1611 -99.9239 284° West 113 130 7,500 194 Climbing Fort Worth Center
Fri 12:23:07 PM 35.1628 -99.9567 274° West 103 119 7,700 192 Climbing Fort Worth Center
Fri 12:24:10 PM 35.1794 -99.9881 303° West 104 120 7,900 192 Climbing Fort Worth Center
Fri 12:25:12 PM 35.2006 -100.0200 309° West 113 130 8,100 290 Climbing Fort Worth Center
Fri 12:26:14 PM 35.2311 -100.0547 317° Northwest 120 138 8,500 242 Climbing Fort Worth Center
Fri 12:27:16 PM 35.2650 -100.0767 332° Northwest 130 150 8,600 48 Climbing Fort Worth Center
Fri 12:28:18 PM 35.3086 -100.0878 348° North 149 171 8,600  Level Fort Worth Center
Fri 12:29:20 PM 35.3458 -100.1164 328° Northwest 155 178 8,600 -48 Level Fort Worth Center
Fri 12:30:22 PM 35.3800 -100.1475 323° Northwest 154 177 8,500 -48 Descending Fort Worth Center
Fri 12:31:24 PM 35.4117 -100.1825 318° Northwest 154 177 8,500  Level Fort Worth Center
Fri 12:32:27 PM 35.4375 -100.2181 312° West 147 169 8,500  Level Fort Worth Center
Fri 12:33:29 PM 35.4567 -100.2667 296° West 136 157 8,500 97 Level Fort Worth Center
Fri 12:34:31 PM 35.4689 -100.3056 291° West 126 145 8,700 145 Climbing Fort Worth Center
Fri 12:35:33 PM 35.4942 -100.3439 309° West 131 151 8,800  Climbing Fort Worth Center
Fri 12:36:35 PM 35.5208 -100.3822 311° West 140 161 8,700 -97 Descending Fort Worth Center
Fri 12:37:37 PM 35.5339 -100.4267 290° West 141 162 8,600 -97 Descending Fort Worth Center
Fri 12:38:39 PM 35.5461 -100.4686 290° West 136 157 8,500 -145 Descending Fort Worth Center
Fri 12:39:41 PM 35.5603 -100.5200 289° West 136 157 8,300 -96 Descending Fort Worth Center
Fri 12:40:44 PM 35.5750 -100.5625 293° West 136 157 8,300 48 Level Fort Worth Center
Fri 12:41:46 PM 35.5886 -100.6039 292° West 135 155 8,400 97 Climbing Fort Worth Center
Fri 12:42:48 PM 35.6011 -100.6411 292° West 125 144 8,500 145 Climbing Fort Worth Center
Fri 12:43:50 PM 35.6119 -100.6806 289° West 122 140 8,700 82 Climbing Fort Worth Center
Fri 12:45:14 PM 35.6236 -100.7378 284° West 124 143 8,700  Level Albuquerque Center
Fri 12:46:16 PM 35.6344 -100.7811 287° West 129 148 8,700 -97 Level Albuquerque Center
Fri 12:47:18 PM 35.6389 -100.8344 276° West 130 150 8,500 -97 Descending Albuquerque Center
Fri 12:48:20 PM 35.6486 -100.8778 285° West 130 150 8,500  Level Albuquerque Center
Fri 12:49:22 PM 35.6622 -100.9217 291° West 133 153 8,500 -48 Level Albuquerque Center
Fri 12:50:25 PM 35.6797 -100.9617 298° West 134 154 8,400 -48 Descending Albuquerque Center
Fri 12:51:27 PM 35.6981 -100.9997 301° West 133 153 8,400 97 Level Albuquerque Center
Fri 12:52:29 PM 35.7208 -101.0453 302° West 133 153 8,600 97 Climbing Albuquerque Center
Fri 12:53:31 PM 35.7444 -101.0800 310° West 132 152 8,600  Level Albuquerque Center
Fri 12:54:33 PM 35.7719 -101.1144 315° West 136 157 8,600  Level Albuquerque Center
Fri 12:55:35 PM 35.7903 -101.1544 299° West 137 158 8,600 -48 Level Albuquerque Center
Fri 12:56:37 PM 35.8078 -101.1956 298° West 137 158 8,500  Descending Albuquerque Center
Fri 12:57:40 PM 35.8317 -101.2356 306° West 139 160 8,600  Climbing Albuquerque Center
Fri 12:58:42 PM 35.8550 -101.2794 303° West 135 155 8,500 -97 Descending Albuquerque Center
Fri 12:59:44 PM 35.8808 -101.3150 312° West 135 155 8,400 -48 Descending Albuquerque Center
Fri 01:00:46 PM 35.9094 -101.3486 316° Northwest 137 158 8,400  Level Albuquerque Center
Fri 01:01:48 PM 35.9356 -101.3797 316° Northwest 136 157 8,400  Level Albuquerque Center
Fri 01:02:50 PM 35.9569 -101.4164 306° West 134 154 8,400 48 Level Albuquerque Center
Fri 01:03:52 PM 35.9842 -101.4597 308° West 134 154 8,500 48 Climbing Albuquerque Center
Fri 01:04:55 PM 36.0114 -101.4947 314° West 134 154 8,500  Level Albuquerque Center
Fri 01:05:57 PM 36.0303 -101.5342 301° West 141 162 8,500 -48 Level Albuquerque Center
Fri 01:06:59 PM 36.0664 -101.5558 334° Northwest 146 168 8,400 -48 Descending Albuquerque Center
Fri 01:08:01 PM 36.1042 -101.5703 343° North 146 168 8,400 48 Level Albuquerque Center
Fri 01:09:03 PM 36.1406 -101.6092 319° Northwest 142 163 8,500 97 Climbing Albuquerque Center
Fri 01:10:05 PM 36.1703 -101.6403 320° Northwest 141 162 8,600 97 Climbing Albuquerque Center
Fri 01:11:07 PM 36.2000 -101.6681 323° Northwest 140 161 8,700  Climbing Albuquerque Center
Fri 01:12:10 PM 36.2333 -101.6944 327° Northwest 140 161 8,600 -96 Descending Albuquerque Center
Fri 01:13:12 PM 36.2656 -101.7231 324° Northwest 140 161 8,500 -97 Descending Albuquerque Center
Fri 01:14:14 PM 36.2858 -101.7606 304° West 139 160 8,400 -145 Descending Albuquerque Center
Fri 01:15:16 PM 36.3017 -101.8111 291° West 137 158 8,200 -145 Descending Albuquerque Center
Fri 01:16:18 PM 36.3169 -101.8536 294° West 136 157 8,100 -97 Descending Albuquerque Center
Fri 01:17:20 PM 36.3364 -101.8936 301° West 136 157 8,000  Descending Albuquerque Center
Fri 01:18:22 PM 36.3586 -101.9297 307° West 135 155 8,100 97 Climbing Albuquerque Center
Fri 01:19:24 PM 36.3836 -101.9608 315° West 134 154 8,200 144 Climbing Albuquerque Center
Fri 01:20:27 PM 36.4042 -102.0022 302° West 122 140 8,400 144 Climbing Albuquerque Center
Fri 01:21:29 PM 36.4139 -102.0408 287° West 121 139 8,500 48 Climbing Albuquerque Center
Fri 01:22:31 PM 36.4225 -102.0803 285° West 115 132 8,500  Level Albuquerque Center
Fri 01:23:33 PM 36.4436 -102.1131 309° West 118 136 8,500  Level Albuquerque Center
Fri 01:24:35 PM 36.4628 -102.1506 302° West 123 142 8,500  Level Albuquerque Center
Fri 01:25:37 PM 36.4803 -102.1883 300° West 123 142 8,500 48 Level Albuquerque Center
Fri 01:26:39 PM 36.4969 -102.2381 293° West 126 145 8,600 48 Climbing Albuquerque Center
Fri 01:27:42 PM 36.5131 -102.2761 298° West 126 145 8,600  Level Albuquerque Center
Fri 01:28:44 PM 36.5339 -102.3117 306° West 127 146 8,600  Level Albuquerque Center
Fri 01:29:46 PM 36.5519 -102.3503 300° West 127 146 8,600  Level Albuquerque Center
Fri 01:30:48 PM 36.5678 -102.3903 296° West 127 146 8,600  Level Albuquerque Center
Fri 01:31:50 PM 36.5853 -102.4417 293° West 129 148 8,600  Level Albuquerque Center
Fri 01:32:52 PM 36.6128 -102.4719 319° Northwest 133 153 8,600 -48 Level Albuquerque Center
Fri 01:33:54 PM 36.6367 -102.5050 312° West 133 153 8,500  Descending Albuquerque Center
Fri 01:34:56 PM 36.6564 -102.5411 304° West 131 151 8,600 48 Climbing Albuquerque Center
Fri 01:35:59 PM 36.6747 -102.5817 299° West 131 151 8,600  Level Albuquerque Center
Fri 01:37:01 PM 36.6911 -102.6217 297° West 131 151 8,600  Level Albuquerque Center
Fri 01:38:03 PM 36.7061 -102.6736 290° West 131 151 8,600  Level Albuquerque Center
Fri 01:39:05 PM 36.7261 -102.7139 302° West 131 151 8,600  Level Albuquerque Center
Fri 01:40:07 PM 36.7453 -102.7575 299° West 138 159 8,600  Level Albuquerque Center
Fri 01:41:09 PM 36.7658 -102.7914 307° West 136 157 8,600  Level Albuquerque Center
Fri 01:42:11 PM 36.7847 -102.8261 304° West 128 147 8,600  Level Albuquerque Center
Fri 01:43:14 PM 36.8114 -102.8689 308° West 128 147 8,600  Level Albuquerque Center
Fri 01:44:16 PM 36.8336 -102.9042 308° West 128 147 8,600  Level Albuquerque Center
Fri 01:45:18 PM 36.8528 -102.9400 304° West 128 147 8,600  Level Albuquerque Center
Fri 01:46:20 PM 36.8747 -102.9789 305° West 128 147 8,600  Level Albuquerque Center
Fri 01:47:22 PM 36.8928 -103.0156 302° West 128 147 8,600 27 Level Albuquerque Center
Fri 01:49:00 PM 36.9196 -103.0759 299° West  Level Estimated
Fri 01:56:00 PM 37.0342 -103.3348 299° West  Level Estimated
Fri 01:57:00 PM 37.0505 -103.3719 299° West  Level Estimated
Fri 01:58:00 PM 37.0668 -103.4089 299° West  Level Estimated
Fri 01:59:00 PM 37.0831 -103.4460 299° West  Level Estimated
Fri 02:00:00 PM 37.0994 -103.4831 299° West  Level Estimated
Fri 02:01:00 PM 37.1157 -103.5203 299° West  Level Estimated
Fri 02:02:00 PM 37.1319 -103.5574 299° West  Level Estimated
Fri 02:03:00 PM 37.1482 -103.5945 299° West  Level Estimated
Fri 02:04:00 PM 37.1644 -103.6317 299° West  Level Estimated
Fri 02:05:00 PM 37.1806 -103.6689 299° West  Level Estimated
Fri 02:06:00 PM 37.1968 -103.7061 299° West  Level Estimated
Fri 02:07:00 PM 37.2131 -103.7433 299° West  Level Estimated
Fri 02:08:00 PM 37.2293 -103.7805 299° West  Level Estimated
Fri 02:09:00 PM 37.2454 -103.8178 299° West  Level Estimated
Fri 02:10:00 PM 37.2616 -103.8551 299° West  Level Estimated
Fri 02:11:00 PM 37.2778 -103.8923 299° West  Level Estimated
Fri 02:12:00 PM 37.2939 -103.9296 299° West  Level Estimated
Fri 02:13:00 PM 37.3101 -103.9669 299° West  Level Estimated
Fri 02:14:00 PM 37.3262 -104.0043 299° West  Level Estimated
Fri 02:15:00 PM 37.3423 -104.0416 298° West  Level Estimated
Fri 02:16:00 PM 37.3584 -104.0790 298° West  Level Estimated
Fri 02:17:00 PM 37.3745 -104.1163 298° West  Level Estimated
Fri 02:18:00 PM 37.3905 -104.1537 298° West  Level Estimated
Fri 02:19:00 PM 37.4066 -104.1911 298° West  Level Estimated
Fri 02:20:00 PM 37.4227 -104.2286 298° West  Level Estimated
Fri 02:21:00 PM 37.4387 -104.2660 298° West  Level Estimated
Fri 02:22:00 PM 37.4547 -104.3035 298° West  Level Estimated
Fri 02:23:00 PM 37.4707 -104.3409 298° West  Level Estimated
Fri 02:24:00 PM 37.4868 -104.3784 298° West  Level Estimated
Fri 02:25:00 PM 37.5028 -104.4159 298° West  Level Estimated
Fri 02:26:00 PM 37.5187 -104.4535 298° West  Level Estimated
Fri 02:27:00 PM 37.5347 -104.4910 298° West  Level Estimated
Fri 02:28:00 PM 37.5507 -104.5285 298° West  Level Estimated
Fri 02:29:00 PM 37.5666 -104.5661 298° West  Level Estimated
Fri 02:30:00 PM 37.5825 -104.6037 298° West  Level Estimated
Fri 02:31:00 PM 37.5985 -104.6413 298° West  Level Estimated
Fri 02:32:00 PM 37.6144 -104.6789 298° West  Level Estimated
Fri 02:33:00 PM 37.6303 -104.7166 298° West  Level Estimated
Fri 02:34:00 PM 37.6462 -104.7542 298° West  Level Estimated
Fri 02:35:00 PM 37.6620 -104.7919 298° West  Level Estimated
Fri 02:36:00 PM 37.6779 -104.8296 298° West  Level Estimated
Fri 02:37:00 PM 37.6937 -104.8672 298° West  Level Estimated
Fri 02:38:00 PM 37.7096 -104.9050 298° West  Level Estimated
Fri 02:39:00 PM 37.7254 -104.9427 298° West  Level Estimated
Fri 02:40:00 PM 37.7412 -104.9804 298° West  Level Estimated
Fri 02:41:00 PM 37.7570 -105.0182 298° West  Level Estimated
Fri 02:42:00 PM 37.7728 -105.0560 298° West  Level Estimated
Fri 02:43:00 PM 37.7886 -105.0938 298° West  Level Estimated
Fri 02:44:00 PM 37.8044 -105.1316 298° West  Level Estimated
Fri 02:45:00 PM 37.8201 -105.1694 298° West  Level Estimated
Fri 02:46:00 PM 37.8359 -105.2073 298° West  Level Estimated
Fri 02:47:00 PM 37.8516 -105.2451 298° West  Level Estimated
Fri 02:48:00 PM 37.8673 -105.2830 298° West  Level Estimated
Fri 02:49:00 PM 37.8830 -105.3209 298° West  Level Estimated
Fri 02:50:00 PM 37.8987 -105.3588 298° West  Level Estimated
Fri 02:51:00 PM 37.9144 -105.3967 298° West  Level Estimated
Fri 02:52:00 PM 37.9301 -105.4346 298° West  Level Estimated
Fri 02:53:00 PM 37.9457 -105.4726 298° West  Level Estimated
Fri 02:54:00 PM 37.9614 -105.5106 298° West  Level Estimated
Fri 02:55:00 PM 37.9770 -105.5486 298° West  Level Estimated
Fri 02:56:00 PM 37.9926 -105.5866 298° West  Level Estimated
Fri 02:56:09 PM 37.5984 -105.6716 318° Northwest 118 136 10,500  Level FlightAware ADS-B
Fri 03:04:44 PM 37.8119 -105.9013 324° Northwest 122 140 12,200 150 Climbing FlightAware ADS-B
Fri 03:09:28 PM 37.9438 -106.0385 322° Northwest 132 152 12,500 19 Climbing FlightAware ADS-B
Fri 03:10:05 PM 37.9629 -106.0552 328° Northwest 140 161 12,300 -179 Descending FlightAware ADS-B
Fri 03:10:35 PM 37.9785 -106.0679 325° Northwest 128 147 12,300  Level FlightAware ADS-B
Fri 03:11:08 PM 37.9947 -106.0809 327° Northwest 130 150 12,300 95 Level FlightAware ADS-B
Fri 03:11:38 PM 38.0095 -106.0947 326° Northwest 129 148 12,400 95 Climbing FlightAware ADS-B
Fri 03:12:11 PM 38.0257 -106.1086 327° Northwest 127 146 12,400 75 Level FlightAware ADS-B
Fri 03:12:58 PM 38.0468 -106.1280 318° Northwest 119 137 12,500  Climbing FlightAware ADS-B
Fri 03:13:28 PM 38.0594 -106.1439 316° Northwest 123 142 12,400 -182 Descending FlightAware ADS-B
Fri 03:14:04 PM 38.0732 -106.1612 311° West 121 139 12,300 -182 Descending FlightAware ADS-B
Fri 03:14:34 PM 38.0839 -106.1796 302° West 131 151 12,200 185 Descending FlightAware ADS-B
Fri 03:15:09 PM 38.0937 -106.2019 298° West 130 150 12,500 188 Climbing FlightAware ADS-B
Fri 03:16:10 PM 38.1085 -106.2454 291° West 128 147 12,500 242 Level FlightAware ADS-B
Fri 03:17:13 PM 38.1221 -106.2882 297° West 125 144 13,000 452 Climbing FlightAware ADS-B
Fri 03:17:43 PM 38.1290 -106.3095 290° West 128 147 13,200 -94 Climbing FlightAware ADS-B
Fri 03:18:17 PM 38.1361 -106.3332 291° West 131 151 12,900 -375 Descending FlightAware ADS-B
Fri 03:18:47 PM 38.1421 -106.3553 287° West 130 150 12,800 -277 Descending FlightAware ADS-B
Fri 03:19:22 PM 38.1494 -106.3798 291° West 125 144 12,600 -500 Descending FlightAware ADS-B
Fri 03:19:59 PM 38.1573 -106.4062 291° West 133 153 12,200 -289 Descending FlightAware ADS-B
Fri 03:23:10 PM 38.1982 -106.5312 300° West 113 130 11,500 -176 Descending FlightAware ADS-B
Fri 03:24:32 PM 38.2140 -106.5766 292° West 105 121 11,400 -48 Descending FlightAware ADS-B
Fri 03:25:16 PM 38.2233 -106.6087 290° West 116 133 11,400 -79 Level FlightAware ADS-B
Fri 03:25:48 PM 38.2300 -106.6297 295° West 125 144 11,300 -83 Descending FlightAware ADS-B
Fri 03:26:28 PM 38.2406 -106.6564 297° West 129 148 11,300 -90 Level FlightAware ADS-B
Fri 03:28:02 PM 38.2657 -106.7187 314° West 135 155 11,100 -90 Descending FlightAware ADS-B
Fri 03:28:41 PM 38.2837 -106.7385 332° Northwest 133 153 11,100  Level FlightAware ADS-B
Fri 03:31:00 PM 38.3506 -106.7904 329° Northwest  Level Estimated
Fri 03:32:00 PM 38.3794 -106.8128 329° Northwest  Level Estimated
Fri 03:33:00 PM 38.4083 -106.8352 329° Northwest  Level Estimated
Fri 03:34:00 PM 38.4371 -106.8576 329° Northwest  Level Estimated
Fri 03:35:00 PM 38.4660 -106.8801 329° Northwest  Level Estimated
Fri 03:36:00 PM 38.4948 -106.9025 329° Northwest  Level Estimated
Fri 03:37:00 PM 38.5237 -106.9250 329° Northwest  Level Estimated
Fri 03:38:00 PM 38.5339 -106.9330 329° Northwest  Level Estimated
Fri 03:39:00 PM 38.5339 -106.9330 North  Level Estimated
Fri 03:40:00 PM 38.5339 -106.9330 North  Level Estimated
Fri 03:41:00 PM 38.5339 -106.9330 North  Level Estimated
Fri 03:42:00 PM 38.5339 -106.9330 North  Level Estimated
Fri 03:43:00 PM 38.5339 -106.9330 North  Level Estimated
Fri 03:44:00 PM 38.5339 -106.9330 North  Level Estimated
Fri 03:45:00 PM 38.5339 -106.9330 North  Level Estimated
Fri 03:46:00 PM 38.5339 -106.9330 North  Level Estimated

Login

Don't have an account? Register now (free) for customized features, flight alerts, and more!